Terminal Aerodrome Forecast
Issued by NWS

Home | Current Version | Previous Version | Text Only | Print | Product List | Glossary On
Versions: 1 2 3 4 5 6 7 8 9 10 11 12 13 14 15 16 17
000
FTUS45 KABQ 242339
TAFGUP
TAF
KGUP 242339Z 2500/2524 27011KT P6SM VCSH BKN070
     FM250500 VRB05KT P6SM SCT080 BKN150
     FM251200 23010KT P6SM VCSH BKN050
     FM251900 25013G23KT P6SM -SHRA BKN060=

USA.gov is the U.S. government's official web portal to all federal, state and local government web resources and services.